createdAt,value
2022-11-21T00:01:27.590Z,53.05
2022-11-21T00:03:54.912Z,53.03
2022-11-21T00:06:23.655Z,47.88
2022-11-21T00:08:51.410Z,47.25
2022-11-21T00:11:18.805Z,47.13
2022-11-21T00:13:46.241Z,48.63
2022-11-21T00:16:15.245Z,46.55
2022-11-21T00:18:44.213Z,44.83
2022-11-21T00:21:15.081Z,45.60
2022-11-21T00:23:44.031Z,43.75
2022-11-21T00:26:15.611Z,51.58
2022-11-21T00:28:43.163Z,46.42
2022-11-21T00:31:20.676Z,43.05
2022-11-21T00:33:48.280Z,45.45
2022-11-21T00:36:15.580Z,46.70
2022-11-21T00:38:42.842Z,45.88
2022-11-21T00:41:12.953Z,42.47
2022-11-21T00:43:40.212Z,44.42
2022-11-21T00:46:07.595Z,43.63
2022-11-21T00:48:34.935Z,49.28
2022-11-21T00:51:03.533Z,44.58
2022-11-21T00:53:31.243Z,44.55
2022-11-21T00:55:58.720Z,44.28
2022-11-21T00:58:26.526Z,42.10
2022-11-21T01:01:03.508Z,45.75
2022-11-21T01:03:32.862Z,50.92
2022-11-21T01:06:08.742Z,50.55
2022-11-21T01:08:38.635Z,47.42
2022-11-21T01:11:08.388Z,42.80
2022-11-21T01:13:36.372Z,43.28
2022-11-21T01:16:16.113Z,47.60
2022-11-21T01:18:43.538Z,44.95
2022-11-21T01:21:25.315Z,42.92
2022-11-21T01:23:53.440Z,41.92
2022-11-21T01:26:23.571Z,41.63
2022-11-21T01:28:51.807Z,40.17
2022-11-21T01:31:24.844Z,39.95
2022-11-21T01:33:52.654Z,36.85
2022-11-21T01:36:21.290Z,33.75
2022-11-21T01:38:51.272Z,38.90
2022-11-21T01:41:36.036Z,39.58
2022-11-21T01:44:22.004Z,35.28
2022-11-21T01:46:50.401Z,40.00
2022-11-21T01:49:30.924Z,35.72
2022-11-21T01:52:15.378Z,41.95
2022-11-21T01:55:12.032Z,34.22
2022-11-21T01:57:43.882Z,33.92
2022-11-21T02:00:27.349Z,47.28
2022-11-21T02:02:59.099Z,40.60
2022-11-21T02:05:31.382Z,32.20
2022-11-21T02:08:03.961Z,42.88
2022-11-21T02:10:32.627Z,43.60
2022-11-21T02:13:00.821Z,39.45
2022-11-21T02:15:30.653Z,42.67
2022-11-21T02:17:57.972Z,41.92
2022-11-21T02:20:28.437Z,41.63
2022-11-21T02:22:55.762Z,49.78
2022-11-21T02:25:31.796Z,49.03
2022-11-21T02:28:02.081Z,43.50
2022-11-21T02:30:31.888Z,51.03
2022-11-21T02:32:59.383Z,46.72
2022-11-21T02:35:26.766Z,50.97
2022-11-21T02:38:19.833Z,55.75
2022-11-21T02:41:17.083Z,48.22
2022-11-21T02:44:00.921Z,48.25
2022-11-21T02:46:29.236Z,40.35
2022-11-21T02:48:58.425Z,45.47
2022-11-21T02:51:25.773Z,42.95
2022-11-21T02:53:53.049Z,39.38
2022-11-21T02:56:20.555Z,29.30
2022-11-21T02:58:48.130Z,41.22
2022-11-21T03:01:15.446Z,42.58
2022-11-21T03:03:42.845Z,52.17
2022-11-21T03:06:10.197Z,55.28
2022-11-21T03:08:37.445Z,51.78
2022-11-21T03:11:05.242Z,53.28
2022-11-21T03:13:32.575Z,49.65
2022-11-21T03:15:59.956Z,47.38
2022-11-21T03:18:27.311Z,52.22
2022-11-21T03:20:54.642Z,46.83
2022-11-21T03:23:21.958Z,49.10
2022-11-21T03:25:49.239Z,34.65
2022-11-21T03:28:16.531Z,53.63
2022-11-21T03:30:43.890Z,51.63
2022-11-21T03:33:11.314Z,50.53
2022-11-21T03:35:38.577Z,51.15
2022-11-21T03:38:05.979Z,41.13
2022-11-21T03:40:33.576Z,52.08
2022-11-21T03:43:07.894Z,52.10
2022-11-21T03:45:35.280Z,44.90
2022-11-21T03:48:02.539Z,53.63
2022-11-21T03:50:29.840Z,50.50
2022-11-21T03:52:57.153Z,52.20
2022-11-21T03:55:24.463Z,46.50
2022-11-21T03:57:51.824Z,48.08
2022-11-21T04:00:19.380Z,48.15
2022-11-21T04:02:46.662Z,40.40
2022-11-21T04:05:13.947Z,44.13
2022-11-21T04:07:41.334Z,47.28
2022-11-21T04:10:09.073Z,43.67
2022-11-21T04:12:36.395Z,51.42
2022-11-21T04:15:07.054Z,51.42
2022-11-21T04:17:39.186Z,44.58
2022-11-21T04:20:06.893Z,53.15
2022-11-21T04:22:34.229Z,57.75
2022-11-21T04:25:01.557Z,50.95
2022-11-21T04:27:28.970Z,50.08
2022-11-21T04:29:56.295Z,49.60
2022-11-21T04:32:23.640Z,44.08
2022-11-21T04:34:50.968Z,46.22
2022-11-21T04:37:18.423Z,48.88
2022-11-21T04:39:45.810Z,44.72
2022-11-21T04:42:13.148Z,43.50
2022-11-21T04:44:40.457Z,46.95
2022-11-21T04:47:08.060Z,43.42
2022-11-21T04:49:35.367Z,45.95
2022-11-21T04:52:03.875Z,43.38
2022-11-21T04:54:31.316Z,41.88
2022-11-21T04:56:58.793Z,46.38
2022-11-21T04:59:26.121Z,43.50
2022-11-21T05:01:53.413Z,49.63
2022-11-21T05:04:20.750Z,48.28
2022-11-21T05:06:48.081Z,43.88
2022-11-21T05:09:15.351Z,51.92
2022-11-21T05:12:01.377Z,46.97
2022-11-21T05:14:29.011Z,42.35
2022-11-21T05:16:56.535Z,48.67
2022-11-21T05:19:23.815Z,47.35
2022-11-21T05:21:51.087Z,46.30
2022-11-21T05:24:18.359Z,44.78
2022-11-21T05:26:45.674Z,48.17
2022-11-21T05:29:13.031Z,52.03
2022-11-21T05:31:40.389Z,47.05
2022-11-21T05:34:07.670Z,50.70
2022-11-21T05:36:35.022Z,46.30
2022-11-21T05:39:02.340Z,50.67
2022-11-21T05:41:29.766Z,47.38
2022-11-21T05:43:57.398Z,50.60
2022-11-21T05:46:26.224Z,49.97
2022-11-21T05:48:54.756Z,53.55
2022-11-21T05:51:22.856Z,52.17
2022-11-21T05:53:50.169Z,52.08
2022-11-21T05:56:19.592Z,53.92
2022-11-21T05:58:47.061Z,55.92
2022-11-21T06:01:15.439Z,47.05
2022-11-21T06:03:43.294Z,52.65
2022-11-21T06:06:13.004Z,47.13
2022-11-21T06:08:47.049Z,47.17
2022-11-21T06:11:16.247Z,46.25
2022-11-21T06:13:44.203Z,44.05
2022-11-21T06:16:21.647Z,45.05
2022-11-21T06:18:58.366Z,42.40
2022-11-21T06:21:28.533Z,53.72
2022-11-21T06:23:58.059Z,44.58
2022-11-21T06:26:26.828Z,48.22
2022-11-21T06:28:55.017Z,51.92
2022-11-21T06:31:27.175Z,51.83
2022-11-21T06:33:56.195Z,55.53
2022-11-21T06:36:23.913Z,49.67
2022-11-21T06:38:53.783Z,51.00
2022-11-21T06:41:23.270Z,52.78
2022-11-21T06:43:50.799Z,54.83
2022-11-21T06:46:18.834Z,50.92
2022-11-21T06:48:46.163Z,52.72
2022-11-21T06:51:16.435Z,55.40
2022-11-21T06:53:44.049Z,52.35
2022-11-21T06:56:11.463Z,51.42
2022-11-21T06:58:38.819Z,76.22
2022-11-21T07:01:08.354Z,63.33
2022-11-21T07:03:36.559Z,46.88
2022-11-21T07:06:04.250Z,98.63
2022-11-21T07:08:33.502Z,45.63
2022-11-21T07:13:53.221Z,42.75
2022-11-21T07:16:20.706Z,46.28
2022-11-21T07:18:48.204Z,30.65
2022-11-21T07:21:15.528Z,41.70
2022-11-21T07:23:42.912Z,44.88
2022-11-21T07:26:10.782Z,47.05
2022-11-21T07:28:38.073Z,39.03
2022-11-21T07:31:11.735Z,46.10
2022-11-21T07:33:40.992Z,41.30
2022-11-21T07:36:08.464Z,39.78
2022-11-21T07:38:35.736Z,42.15
2022-11-21T07:41:03.232Z,40.53
2022-11-21T07:43:30.660Z,41.15
2022-11-21T07:46:00.126Z,38.53
2022-11-21T07:48:27.491Z,39.85
2022-11-21T07:50:54.823Z,39.08
2022-11-21T07:53:22.179Z,40.95
2022-11-21T07:55:49.528Z,42.17
2022-11-21T07:58:17.456Z,41.58
2022-11-21T08:00:44.939Z,44.25
2022-11-21T08:03:13.461Z,39.67
2022-11-21T08:05:44.623Z,40.55
2022-11-21T08:08:13.154Z,46.72
2022-11-21T08:10:43.221Z,43.63
2022-11-21T08:13:11.657Z,34.25
2022-11-21T08:15:39.571Z,37.40
2022-11-21T08:18:11.727Z,58.13
2022-11-21T08:20:40.596Z,32.58
2022-11-21T08:23:08.257Z,52.65
2022-11-21T08:25:38.858Z,37.92
2022-11-21T08:28:08.277Z,45.97
2022-11-21T08:30:36.884Z,38.72
2022-11-21T08:33:05.024Z,32.83
2022-11-21T08:35:32.539Z,32.72
2022-11-21T08:38:01.434Z,26.60
2022-11-21T08:40:30.862Z,32.00
2022-11-21T08:42:58.773Z,29.25
2022-11-21T08:45:26.513Z,47.13
2022-11-21T08:47:54.759Z,37.22
2022-11-21T08:50:23.339Z,34.40
2022-11-21T08:52:50.675Z,28.73
2022-11-21T08:55:18.214Z,23.40
2022-11-21T08:57:45.532Z,21.20
2022-11-21T09:00:13.765Z,25.33
2022-11-21T09:02:41.170Z,24.67
2022-11-21T09:05:09.396Z,25.33
2022-11-21T09:07:37.154Z,29.27
2022-11-21T09:10:05.152Z,20.45
2022-11-21T09:12:32.557Z,19.00
2022-11-21T09:15:18.444Z,19.30
2022-11-21T09:18:03.878Z,19.58
2022-11-21T09:20:39.646Z,22.38
2022-11-21T09:23:14.985Z,20.02
2022-11-21T09:25:43.009Z,21.15
2022-11-21T09:28:12.595Z,20.65
2022-11-21T09:30:41.229Z,21.48
2022-11-21T09:33:14.368Z,21.33
2022-11-21T09:35:41.726Z,19.70
2022-11-21T09:38:09.481Z,24.17
2022-11-21T09:40:41.967Z,22.67
2022-11-21T09:43:30.282Z,19.20
2022-11-21T09:46:13.238Z,18.63
2022-11-21T09:48:48.576Z,21.35
2022-11-21T09:51:19.264Z,19.67
2022-11-21T09:53:59.426Z,19.58
2022-11-21T09:56:30.382Z,25.75
2022-11-21T09:59:25.721Z,20.13
2022-11-21T10:01:53.122Z,17.80
2022-11-21T10:04:20.598Z,16.75
2022-11-21T10:07:16.104Z,18.13
2022-11-21T10:10:22.151Z,19.35
2022-11-21T10:13:13.908Z,25.23
2022-11-21T10:16:06.402Z,16.23
2022-11-21T10:19:03.790Z,16.80
2022-11-21T10:21:49.443Z,17.08
2022-11-21T10:24:52.612Z,13.68
2022-11-21T10:27:37.851Z,14.38
2022-11-21T10:30:13.819Z,14.43
2022-11-21T10:32:46.234Z,10.98
2022-11-21T10:35:21.962Z,16.13
2022-11-21T10:38:01.679Z,21.23
2022-11-21T10:40:42.101Z,39.53
2022-11-21T10:43:36.977Z,12.38
2022-11-21T10:46:04.320Z,14.10
2022-11-21T10:48:31.640Z,12.10
2022-11-21T10:51:18.705Z,9.75
2022-11-21T10:54:07.753Z,286.20
2022-11-21T10:56:37.100Z,13.27
2022-11-21T10:59:20.246Z,52.20
2022-11-21T11:01:56.510Z,200.23
2022-11-21T11:04:43.995Z,15.40
2022-11-21T11:07:28.153Z,26.45
2022-11-21T11:10:26.889Z,16.77
2022-11-21T11:16:16.199Z,15.40
2022-11-21T11:18:55.766Z,15.55
2022-11-21T11:21:25.629Z,11.30
2022-11-21T11:26:26.513Z,12.55
2022-11-21T11:28:58.704Z,14.63
2022-11-21T11:31:26.063Z,10.55
2022-11-21T11:33:55.850Z,15.25
2022-11-21T11:36:23.117Z,12.60
2022-11-21T11:38:59.262Z,19.08
2022-11-21T11:42:12.433Z,17.27
2022-11-21T11:45:27.811Z,12.88
2022-11-21T11:47:58.163Z,11.25
2022-11-21T11:50:53.534Z,14.43
2022-11-21T11:53:30.500Z,13.68
2022-11-21T11:56:00.274Z,12.75
2022-11-21T11:58:49.588Z,13.23
2022-11-21T12:01:21.968Z,36.65
2022-11-21T12:04:02.473Z,16.23
2022-11-21T12:07:46.680Z,16.25
2022-11-21T12:10:02.542Z,19.13
2022-11-21T12:12:37.674Z,16.25
2022-11-21T12:15:45.419Z,23.73
2022-11-21T12:18:15.811Z,13.95
2022-11-21T12:21:15.328Z,16.27
2022-11-21T12:23:54.234Z,11.10
2022-11-21T12:26:55.380Z,12.80
2022-11-21T12:30:00.733Z,14.93
2022-11-21T12:33:08.796Z,11.02
2022-11-21T12:36:17.869Z,10.70
2022-11-21T12:39:06.882Z,12.60
2022-11-21T12:42:00.284Z,10.70
2022-11-21T12:45:05.559Z,10.90
2022-11-21T12:48:12.541Z,13.90
2022-11-21T12:51:17.186Z,13.23
2022-11-21T12:54:29.001Z,12.70
2022-11-21T12:57:05.434Z,15.45
2022-11-21T12:59:40.569Z,14.65
2022-11-21T13:02:38.532Z,11.77
2022-11-21T13:05:12.107Z,11.32
2022-11-21T13:07:40.973Z,11.32
2022-11-21T13:10:14.847Z,12.32
2022-11-21T13:12:51.400Z,10.68
2022-11-21T13:15:28.166Z,13.45
2022-11-21T13:18:19.385Z,10.02
2022-11-21T13:20:49.149Z,11.30
2022-11-21T13:23:37.055Z,12.35
2022-11-21T13:26:33.762Z,11.80
2022-11-21T13:29:27.426Z,11.57
2022-11-21T13:31:55.170Z,11.18
2022-11-21T13:34:31.730Z,14.88
2022-11-21T13:36:59.318Z,12.10
2022-11-21T13:39:29.885Z,10.70
2022-11-21T13:42:29.259Z,11.15
2022-11-21T13:44:58.664Z,11.57
2022-11-21T13:47:25.934Z,12.40
2022-11-21T13:50:11.565Z,12.52
2022-11-21T13:52:57.330Z,17.67
2022-11-21T13:55:55.686Z,11.75
2022-11-21T13:58:47.726Z,11.13
2022-11-21T14:01:53.163Z,12.98
2022-11-21T14:04:20.496Z,11.10
2022-11-21T14:06:48.447Z,11.77
2022-11-21T14:09:20.284Z,13.80
2022-11-21T14:11:51.086Z,16.17
2022-11-21T14:14:41.489Z,11.55
2022-11-21T14:17:26.947Z,11.32
2022-11-21T14:19:59.885Z,12.38
2022-11-21T14:22:45.991Z,12.55
2022-11-21T14:25:20.166Z,14.85
2022-11-21T14:27:51.216Z,15.45
2022-11-21T14:30:35.381Z,13.15
2022-11-21T14:33:22.813Z,11.60
2022-11-21T14:35:54.214Z,12.82
2022-11-21T14:38:24.912Z,17.35
2022-11-21T14:41:27.545Z,13.38
2022-11-21T14:44:04.173Z,14.57
2022-11-21T14:46:37.613Z,11.73
2022-11-21T14:49:17.166Z,13.90
2022-11-21T14:52:11.342Z,18.23
2022-11-21T14:55:22.800Z,19.65
2022-11-21T14:57:43.312Z,11.27
2022-11-21T15:00:36.308Z,11.38
2022-11-21T15:03:03.333Z,11.25
2022-11-21T15:06:00.901Z,10.00
2022-11-21T15:08:48.003Z,9.85
2022-11-21T15:11:12.731Z,10.93
2022-11-21T15:16:28.887Z,12.63
2022-11-21T15:18:56.671Z,10.68
2022-11-21T15:21:26.438Z,11.38
2022-11-21T15:23:55.536Z,11.15
2022-11-21T15:26:35.519Z,12.80
2022-11-21T15:31:31.237Z,21.25
2022-11-21T15:37:08.201Z,24.25
2022-11-21T15:39:36.147Z,29.27
2022-11-21T15:42:31.283Z,28.83
2022-11-21T15:45:20.438Z,39.75
2022-11-21T15:47:49.000Z,40.53
2022-11-21T15:50:17.418Z,55.85
2022-11-21T15:52:46.046Z,48.80
2022-11-21T15:55:19.717Z,48.17
2022-11-21T15:57:14.859Z,11.50
2022-11-21T15:57:49.446Z,53.03
2022-11-21T16:00:17.539Z,54.55
2022-11-21T16:02:44.801Z,49.80
2022-11-21T16:05:14.012Z,50.72
2022-11-21T16:07:42.148Z,75.32
2022-11-21T16:10:18.319Z,98.63
2022-11-21T16:12:47.211Z,83.22
2022-11-21T16:15:14.611Z,90.70
2022-11-21T16:17:41.983Z,88.70
2022-11-21T16:20:09.670Z,71.53
2022-11-21T16:22:36.959Z,71.05
2022-11-21T16:25:04.658Z,64.97
2022-11-21T16:27:32.738Z,66.47
2022-11-21T16:30:00.064Z,61.22
2022-11-21T16:32:27.976Z,61.90
2022-11-21T16:34:55.223Z,61.63
2022-11-21T16:37:22.547Z,75.10
2022-11-21T16:39:52.247Z,66.75
2022-11-21T16:42:20.248Z,69.10
2022-11-21T16:44:48.140Z,69.72
2022-11-21T16:47:15.628Z,64.45
2022-11-21T16:49:48.441Z,61.53
2022-11-21T16:52:18.211Z,55.88
2022-11-21T16:54:48.645Z,51.72
2022-11-21T16:57:15.899Z,53.40
2022-11-21T16:59:43.234Z,56.80
2022-11-21T17:02:11.343Z,66.70
2022-11-21T17:04:38.647Z,71.93
2022-11-21T17:07:06.031Z,88.93
2022-11-21T17:09:33.477Z,82.07
2022-11-21T17:12:00.772Z,77.35
2022-11-21T17:14:28.345Z,65.03
2022-11-21T17:16:56.017Z,57.58
2022-11-21T17:19:23.524Z,58.75
2022-11-21T17:21:50.849Z,50.95
2022-11-21T17:24:18.493Z,41.25
2022-11-21T17:26:45.836Z,41.00
2022-11-21T17:29:13.215Z,40.78
2022-11-21T17:31:41.911Z,42.90
2022-11-21T17:34:09.308Z,47.35
2022-11-21T17:36:36.611Z,47.85
2022-11-21T17:39:04.170Z,44.85
2022-11-21T17:41:31.488Z,49.13
2022-11-21T17:44:02.148Z,47.03
2022-11-21T17:46:29.766Z,42.38
2022-11-21T17:48:58.816Z,52.13
2022-11-21T17:51:33.497Z,45.25
2022-11-21T17:54:02.029Z,42.22
2022-11-21T17:56:31.907Z,39.25
2022-11-21T17:58:59.351Z,46.50
2022-11-21T18:01:27.052Z,38.58
2022-11-21T18:03:59.512Z,35.35
2022-11-21T18:06:29.284Z,33.00
2022-11-21T18:08:59.885Z,33.70
2022-11-21T18:11:38.987Z,45.72
2022-11-21T18:14:08.046Z,42.72
2022-11-21T18:16:35.892Z,41.75
2022-11-21T18:19:03.504Z,47.08
2022-11-21T18:21:33.452Z,49.38
2022-11-21T18:26:39.113Z,44.33
2022-11-21T18:31:58.932Z,56.17
2022-11-21T18:34:26.284Z,56.20
2022-11-21T18:36:54.324Z,60.95
2022-11-21T18:39:24.945Z,59.75
2022-11-21T18:41:52.416Z,61.50
2022-11-21T18:44:22.331Z,63.13
2022-11-21T18:46:50.480Z,63.38
2022-11-21T18:49:18.259Z,54.08
2022-11-21T18:51:48.980Z,64.15
2022-11-21T18:54:16.378Z,61.15
2022-11-21T18:56:43.995Z,59.97
2022-11-21T18:59:11.439Z,62.30
2022-11-21T19:01:42.080Z,64.18
2022-11-21T19:04:09.811Z,66.05
2022-11-21T19:06:37.211Z,62.90
2022-11-21T19:09:04.611Z,68.22
2022-11-21T19:11:32.052Z,63.17
2022-11-21T19:14:00.813Z,58.88
2022-11-21T19:16:31.454Z,60.35
2022-11-21T19:19:32.981Z,58.15
2022-11-21T19:21:47.179Z,59.63
2022-11-21T19:24:15.476Z,66.35
2022-11-21T19:26:45.915Z,66.60
2022-11-21T19:29:13.313Z,70.72
2022-11-21T19:31:45.317Z,63.65
2022-11-21T19:34:15.045Z,68.72
2022-11-21T19:36:42.780Z,79.30
2022-11-21T19:39:10.547Z,72.93
2022-11-21T19:41:38.300Z,68.43
2022-11-21T19:44:05.749Z,74.13
2022-11-21T19:46:35.357Z,66.15
2022-11-21T19:49:06.380Z,72.47
2022-11-21T19:51:39.852Z,65.35
2022-11-21T19:54:09.238Z,60.28
2022-11-21T19:56:36.587Z,68.80
2022-11-21T19:59:04.365Z,74.18
2022-11-21T20:01:33.670Z,70.53
2022-11-21T20:04:03.472Z,86.95
2022-11-21T20:06:33.582Z,83.72
2022-11-21T20:09:05.378Z,82.85
2022-11-21T20:11:33.559Z,75.70
2022-11-21T20:14:01.180Z,69.03
2022-11-21T20:16:31.065Z,68.32
2022-11-21T20:21:27.857Z,62.70
2022-11-21T20:23:57.331Z,61.58
2022-11-21T20:26:25.796Z,65.75
2022-11-21T20:28:53.528Z,65.07
2022-11-21T20:31:23.460Z,65.40
2022-11-21T20:36:21.275Z,64.63
2022-11-21T20:39:00.255Z,65.13
2022-11-21T20:41:30.041Z,61.28
2022-11-21T20:46:47.057Z,83.25
2022-11-21T20:49:14.596Z,64.13
2022-11-21T20:54:31.168Z,79.82
2022-11-21T20:56:58.658Z,85.72
2022-11-21T20:59:26.543Z,90.95
2022-11-21T21:01:54.065Z,87.63
2022-11-21T21:04:21.406Z,81.07
2022-11-21T21:06:48.691Z,98.45
2022-11-21T21:09:16.070Z,89.43
2022-11-21T21:11:52.691Z,71.22
2022-11-21T21:14:22.074Z,60.28
2022-11-21T21:16:50.013Z,62.13
2022-11-21T21:19:17.913Z,66.15
2022-11-21T21:21:45.350Z,65.25
2022-11-21T21:24:13.448Z,59.72
2022-11-21T21:26:46.565Z,84.68
2022-11-21T21:29:17.814Z,85.45
2022-11-21T21:31:51.055Z,79.32
2022-11-21T21:34:21.165Z,91.55
2022-11-21T21:36:49.402Z,98.07
2022-11-21T21:39:16.977Z,94.13
2022-11-21T21:41:46.184Z,115.95
2022-11-21T21:46:41.785Z,93.38
2022-11-21T21:49:09.080Z,91.53
2022-11-21T21:51:37.573Z,87.20
2022-11-21T21:54:06.522Z,85.97
2022-11-21T21:56:34.326Z,89.88
2022-11-21T21:59:01.663Z,98.82
2022-11-21T22:01:31.642Z,98.03
2022-11-21T22:04:01.197Z,90.45
2022-11-21T22:06:29.680Z,93.38
2022-11-21T22:08:57.029Z,105.07
2022-11-21T22:11:26.616Z,112.63
2022-11-21T22:13:59.424Z,121.85
2022-11-21T22:16:27.296Z,117.93
2022-11-21T22:18:54.678Z,140.65
2022-11-21T22:21:32.971Z,130.73
2022-11-21T22:24:26.061Z,197.35
2022-11-21T22:26:53.894Z,179.82
2022-11-21T22:29:21.186Z,193.43
2022-11-21T22:31:48.475Z,171.27
2022-11-21T22:34:15.851Z,167.15
2022-11-21T22:36:43.452Z,180.27
2022-11-21T22:39:10.726Z,167.40
2022-11-21T22:41:38.087Z,160.65
2022-11-21T22:44:05.586Z,134.88
2022-11-21T22:46:32.964Z,131.18
2022-11-21T22:49:00.298Z,155.60
2022-11-21T22:51:29.789Z,145.88
2022-11-21T22:53:57.625Z,137.32
2022-11-21T22:56:25.775Z,136.63
2022-11-21T22:58:53.891Z,130.32
2022-11-21T23:01:23.552Z,175.60
2022-11-21T23:03:51.710Z,121.93
2022-11-21T23:06:21.477Z,107.68
2022-11-21T23:08:49.557Z,103.43
2022-11-21T23:11:21.612Z,119.72
2022-11-21T23:13:49.420Z,111.07
2022-11-21T23:16:17.341Z,106.57
2022-11-21T23:18:44.781Z,99.35
2022-11-21T23:21:13.098Z,101.18
2022-11-21T23:23:41.177Z,97.90
2022-11-21T23:26:08.652Z,82.75
2022-11-21T23:28:36.441Z,99.65
2022-11-21T23:31:03.852Z,164.00
2022-11-21T23:33:31.164Z,154.55
2022-11-21T23:35:58.531Z,152.48
2022-11-21T23:38:25.840Z,156.63
2022-11-21T23:40:53.216Z,150.02
2022-11-21T23:43:20.562Z,130.98
2022-11-21T23:45:52.315Z,121.50
2022-11-21T23:48:20.667Z,122.10
2022-11-21T23:50:50.420Z,104.97
2022-11-21T23:53:18.844Z,92.57
2022-11-21T23:55:46.537Z,94.53
2022-11-21T23:58:14.224Z,82.97
